Предлагаем Вашему вниманию английскую версию страницы: AUTOTAF.ME UNNT - aviation weather forecast Novosibirsk (Tolmachevo)

AUTOTAF UNNT - авиапрогноз Новосибирск (Толмачево)

Сегодня рассвет 01:58 UTC, восход солнца 02:40 UTC,
местный полдень 06:40 UTC, заход солнца 10:40 UTC,
наступление темноты 11:22 UTC.

Краткий прогноз UNNT на 9 часов

AUTOTAF.ME UNNT 190800Z 1909/1918 24005G11MPS 9999 OVC007    
  FM191200 26005G11MPS 5000 BR BKN008 
  FM191500 28004MPS 1000 BR BKN003

Детальный прогноз UNNT на 24 часа

AUTOTAF.ME UNNT 190800Z 1909/2009 24005G11MPS 9999 OVC007 TXM17/1909Z TNM26/2003Z  
  FM191200 26005G11MPS 5000 BR BKN008 
  FM191500 28004MPS 1000 BR BKN003  
  BECMG 1919/1921 BKN009  
  FM200000 VRB02MPS 0200 FG IC BKN009  
  FM200600 VRB02MPS 9999 BKN010 
  FM200900 VRB02MPS 1000 BR BKN003

Подробный табличный прогноз

Время (UTC) miniAUTOTAF на 3 ч WX FZLVL
M AGL
ICE TURB Т
(°С)
Тd
(°С)
f(%) QNH
(гПа)
WIND/T
06 24004MPS 9999 BKN007 SFC MOD FL10/FL70 MOD SFC/FL20 -18 -22 73 1020 ...
09 24005G11MPS 9999 OVC007 SFC MOD FL10/FL20 MOD SFC/FL20 -17 -21 74 1020 ...
12 26005G11MPS 5000 BR BKN008 BR SFC MOD SFC/FL20 -19 -23 75 1023 ...
15 28004MPS 1000 BR BKN003 BR SFC -20 -24 75 1024 ...
18 28003MPS 1000 BR BKN003 BR SFC MOD FL20/FL30 -21 -25 73 1027 ...
21 VRB02MPS 1000 BR BKN009 BR SFC -23 -26 76 1028 ...
20.01.2021
00 VRB02MPS 0200 FG IC BKN009 FG IC SFC -25 -28 75 1030 ...
03 VRB02MPS 0200 FG IC BKN009 FG IC SFC -26 -29 76 1031 ...
06 VRB02MPS 9999 BKN010 SFC -25 -28 75 1031 ...
09 VRB02MPS 1000 BR BKN003 BR SFC -22 -25 75 1029 ...
12 08003MPS 1000 BR BKN003 BR SFC -22 -26 74 1029 ...
15 10003MPS 9999 SCT009 SFC MOD FL120/FL170 -21 -25 73 1027 ...
18 09003MPS 9999 SCT008 SFC MOD FL10/FL170 -20 -23 74 1024 ...
21 08003MPS 2000 SN OVC007 SN SFC MOD FL150/FL160 -18 -21 77 1021 ...
21.01.2021
00 VRB02MPS 1000 SN BR OVC003 SN BR SFC MOD FL10/FL20 -18 -20 81 1019 ...
03 22003MPS 1000 BR BKN003 BR SFC MOD FL10/FL20 -16 -19 81 1019 ...


Широта 55.03322°, долгота 82.59917°, высота 111 м абс.
Средняя высота рельефа местности 124 м абс.
Прогнозы обновляются четыре раза в сутки: в 02, 08, 14, 20 ч всемирного времени.


Выбрать прогноз по другой модели Новосибирск (Толмачево)
Онлайн-сводка гроз по Новосибирск (Толмачево) (для РФ и ближнего зарубежья)
Карта фактических гроз в окрестностях Новосибирск (Толмачево)
Динамические прогностические карты (ventusky.com)
Прогностическая карта высоты нижней границы облаков по Новосибирск (Толмачево) (windy.com)
Выбрать другой город

Прогноз предназначен для личного научно-познавательного использования частными лицами
и не предназначен для принятия важных решений и выполнения реальных полётов воздушных судов

При копировании или ином использовании любых материалов данного сайта ссылка на © meteocenter.asia обязательна.

0.57/1